Time;durP1;ratioP1;P1;durP2;ratioP2;P2;SDS_P1;SDS_P2;PMS_P1;PMS_P2;Temp;Humidity;BMP_temperature;BMP_pressure;BME280_temperature;BME280_humidity;BME280_pressure;Samples;Min_cycle;Max_cycle;Signal;HPM_P1;HPM_P2
2022/06/16 00:02:24;;;;;;;;;;;;;;;;;;4930798;28;19928;-56
2022/06/16 00:04:49;;;;;;;;;;;;;;;;;;4920944;28;21938;-54
2022/06/16 00:07:15;;;;;;;;;;;;;;;;;;4931146;28;19924;-55
2022/06/16 00:09:40;;;;;;;;;;;;;;;;;;4935199;28;19925;-54
2022/06/16 00:12:10;;;;;;;;;;;;;;;;;;4957268;28;19922;-55
2022/06/16 00:14:35;;;;;;;;;;;;;;;;;;4940340;28;19921;-55
2022/06/16 00:17:01;;;;;;;;;;;;;;;;;;4935691;28;20362;-55
2022/06/16 00:19:27;;;;;;;;;;;;;;;;;;4955413;28;21924;-54
2022/06/16 00:25:11;;;;;;;;;;;;;;;;;;4954170;28;19929;-53
2022/06/16 00:27:36;;;;;;;;;;;;;;;;;;4951644;28;19957;-54
2022/06/16 00:30:03;;;;;;;;;;;;;;;;;;4925069;28;19957;-55
2022/06/16 00:32:28;;;;;;;;;;;;;;;;;;4934650;28;20004;-55
2022/06/16 00:34:54;;;;;;;;;;;;;;;;;;4917906;28;19929;-54
2022/06/16 00:37:19;;;;;;;;;;;;;;;;;;4949574;28;19922;-54
2022/06/16 00:39:46;;;;;;;;;;;;;;;;;;4958389;28;20968;-55
2022/06/16 00:42:12;;;;;;;;;;;;;;;;;;4952892;28;19936;-56
2022/06/16 00:44:39;;;;;;;;;;;;;;;;;;4917656;28;19922;-55
2022/06/16 00:47:07;;;;;;;;;;;;;;;;;;4938544;28;20436;-54
2022/06/16 00:49:32;;;;;;;;;;;;;;;;;;4929342;28;19965;-54
2022/06/16 00:51:57;;;;;;;;;;;;;;;;;;4945815;28;20084;-55
2022/06/16 00:54:44;;;;;;;;;;;;;;;;;;4958750;28;20021;-55
2022/06/16 00:57:13;;;;;;;;;;;;;;;;;;4953936;28;19984;-55
2022/06/16 00:59:41;;;;;;;;;;;;;;;;;;4948628;28;19933;-54
2022/06/16 01:02:09;;;;;;;;;;;;;;;;;;4949955;28;19926;-54
2022/06/16 01:04:53;;;;;;;;;;;;;;;;;;4956671;28;19929;-54
2022/06/16 01:07:18;;;;;;;;;;;;;;;;;;4955040;28;20347;-55
2022/06/16 01:09:43;;;;;;;;;;;;;;;;;;4936551;28;19928;-55
2022/06/16 01:14:53;;;;;;;;;;;;;;;;;;4949784;28;20031;-55
2022/06/16 01:17:21;;;;;;;;;;;;;;;;;;4956441;28;20471;-54
2022/06/16 01:19:46;;;;;;;;;;;;;;;;;;4954128;28;19944;-55
2022/06/16 01:22:14;;;;;;;;;;;;;;;;;;4956474;28;20012;-55
2022/06/16 01:24:40;;;;;;;;;;;;;;;;;;4957600;28;20572;-54
2022/06/16 01:27:07;;;;;;;;;;;;;;;;;;4959943;28;19944;-54
2022/06/16 01:29:35;;;;;;;;;;;;;;;;;;4932886;28;19936;-53
2022/06/16 01:32:00;;;;;;;;;;;;;;;;;;4950735;28;19922;-53
2022/06/16 01:34:26;;;;;;;;;;;;;;;;;;4953595;28;19921;-54
2022/06/16 01:36:51;;;;;;;;;;;;;;;;;;4952356;28;19918;-54
2022/06/16 01:39:17;;;;;;;;;;;;;;;;;;4949813;28;20007;-54
2022/06/16 01:41:42;;;;;;;;;;;;;;;;;;4959943;28;19926;-56
2022/06/16 01:44:08;;;;;;;;;;;;;;;;;;4957948;28;20060;-54
2022/06/16 01:46:34;;;;;;;;;;;;;;;;;;4952713;28;19973;-55
2022/06/16 01:48:59;;;;;;;;;;;;;;;;;;4954490;28;19979;-55
2022/06/16 01:51:27;;;;;;;;;;;;;;;;;;4940836;28;19926;-55
2022/06/16 01:53:55;;;;;;;;;;;;;;;;;;4939759;28;19933;-53
2022/06/16 01:56:20;;;;;;;;;;;;;;;;;;4941440;28;20001;-55
2022/06/16 01:58:48;;;;;;;;;;;;;;;;;;4944718;28;19918;-55
2022/06/16 02:01:20;;;;;;;;;;;;;;;;;;4957932;28;19933;-54
2022/06/16 02:03:45;;;;;;;;;;;;;;;;;;4928579;28;19936;-55
2022/06/16 02:06:10;;;;;;;;;;;;;;;;;;4958614;28;19922;-54
2022/06/16 02:08:38;;;;;;;;;;;;;;;;;;4953442;28;19917;-54
2022/06/16 02:11:07;;;;;;;;;;;;;;;;;;4956385;28;19922;-55
2022/06/16 02:13:40;;;;;;;;;;;;;;;;;;4935575;28;20005;-54
2022/06/16 02:16:06;;;;;;;;;;;;;;;;;;4955536;28;19925;-54
2022/06/16 02:18:36;;;;;;;;;;;;;;;;;;4936820;28;19921;-54
2022/06/16 02:21:01;;;;;;;;;;;;;;;;;;4955658;28;20009;-54
2022/06/16 02:23:29;;;;;;;;;;;;;;;;;;4938507;28;19968;-55
2022/06/16 02:25:57;;;;;;;;;;;;;;;;;;4955425;28;21913;-52
2022/06/16 02:28:25;;;;;;;;;;;;;;;;;;4959339;28;19984;-55
2022/06/16 02:30:50;;;;;;;;;;;;;;;;;;4955949;28;20060;-54
2022/06/16 02:33:15;;;;;;;;;;;;;;;;;;4937520;28;19922;-53
2022/06/16 02:35:43;;;;;;;;;;;;;;;;;;4937600;28;19921;-53
2022/06/16 02:38:08;;;;;;;;;;;;;;;;;;4923895;28;19929;-55
2022/06/16 02:40:36;;;;;;;;;;;;;;;;;;4936522;28;19933;-54
2022/06/16 02:43:02;;;;;;;;;;;;;;;;;;4941098;28;19937;-53
2022/06/16 02:45:29;;;;;;;;;;;;;;;;;;4940119;28;20739;-54
2022/06/16 02:47:57;;;;;;;;;;;;;;;;;;4932722;28;19917;-53
2022/06/16 02:50:23;;;;;;;;;;;;;;;;;;4950268;28;20000;-54
2022/06/16 02:52:49;;;;;;;;;;;;;;;;;;4953737;28;19934;-54
2022/06/16 02:55:16;;;;;;;;;;;;;;;;;;4932807;28;19929;-54
2022/06/16 02:57:42;;;;;;;;;;;;;;;;;;4958644;28;19918;-54
2022/06/16 03:00:07;;;;;;;;;;;;;;;;;;4960842;28;22828;-54
2022/06/16 03:02:35;;;;;;;;;;;;;;;;;;4939934;28;19921;-55
2022/06/16 03:05:04;;;;;;;;;;;;;;;;;;4935497;28;19968;-55
2022/06/16 03:07:35;;;;;;;;;;;;;;;;;;4955882;28;20018;-55
2022/06/16 03:10:03;;;;;;;;;;;;;;;;;;4957124;28;20227;-55
2022/06/16 03:12:31;;;;;;;;;;;;;;;;;;4956652;28;19961;-54
2022/06/16 03:14:58;;;;;;;;;;;;;;;;;;4935376;28;19928;-54
2022/06/16 03:17:24;;;;;;;;;;;;;;;;;;4956778;28;19922;-54
2022/06/16 03:19:51;;;;;;;;;;;;;;;;;;4952421;28;19917;-55
2022/06/16 03:22:18;;;;;;;;;;;;;;;;;;4955789;28;19976;-55
2022/06/16 03:24:46;;;;;;;;;;;;;;;;;;4932185;28;20076;-53
2022/06/16 03:27:14;;;;;;;;;;;;;;;;;;4955869;28;19987;-54
2022/06/16 03:29:42;;;;;;;;;;;;;;;;;;4942044;28;22870;-55
2022/06/16 03:32:07;;;;;;;;;;;;;;;;;;4959352;28;19964;-55
2022/06/16 03:34:35;;;;;;;;;;;;;;;;;;4934792;28;19944;-55
2022/06/16 03:37:03;;;;;;;;;;;;;;;;;;4935162;28;19933;-55
2022/06/16 03:39:29;;;;;;;;;;;;;;;;;;4952716;28;19922;-56
2022/06/16 03:41:58;;;;;;;;;;;;;;;;;;4954278;28;19969;-54
2022/06/16 03:44:24;;;;;;;;;;;;;;;;;;4955693;28;19926;-55
2022/06/16 03:46:52;;;;;;;;;;;;;;;;;;4953653;28;20016;-54
2022/06/16 03:49:17;;;;;;;;;;;;;;;;;;4957030;28;19940;-55
2022/06/16 03:51:43;;;;;;;;;;;;;;;;;;4954774;28;20297;-54
2022/06/16 03:54:10;;;;;;;;;;;;;;;;;;4957083;28;19921;-55
2022/06/16 03:56:38;;;;;;;;;;;;;;;;;;4950278;28;20008;-55
2022/06/16 03:59:05;;;;;;;;;;;;;;;;;;4957618;28;19929;-54
2022/06/16 04:01:31;;;;;;;;;;;;;;;;;;4956368;28;19964;-54
2022/06/16 04:04:00;;;;;;;;;;;;;;;;;;4955253;28;19917;-55
2022/06/16 04:06:26;;;;;;;;;;;;;;;;;;4954591;28;19922;-55
2022/06/16 04:08:54;;;;;;;;;;;;;;;;;;4956059;28;19961;-54
2022/06/16 04:11:30;;;;;;;;;;;;;;;;;;4955891;28;22054;-55
2022/06/16 04:13:56;;;;;;;;;;;;;;;;;;4957703;28;20025;-55
2022/06/16 04:16:22;;;;;;;;;;;;;;;;;;4957138;28;20040;-56
2022/06/16 04:18:49;;;;;;;;;;;;;;;;;;4953840;28;19922;-54
2022/06/16 04:21:17;;;;;;;;;;;;;;;;;;4957261;28;19922;-54
2022/06/16 04:23:43;;;;;;;;;;;;;;;;;;4953202;28;20641;-56
2022/06/16 04:26:10;;;;;;;;;;;;;;;;;;4954265;28;22090;-54
2022/06/16 04:28:38;;;;;;;;;;;;;;;;;;4952505;28;19949;-55
2022/06/16 04:31:05;;;;;;;;;;;;;;;;;;4960097;28;19922;-55
2022/06/16 04:33:30;;;;;;;;;;;;;;;;;;4957782;28;19929;-56
2022/06/16 04:35:56;;;;;;;;;;;;;;;;;;4960562;28;19918;-55
2022/06/16 04:38:22;;;;;;;;;;;;;;;;;;4957627;28;19925;-56
2022/06/16 04:40:47;;;;;;;;;;;;;;;;;;4955200;28;19926;-56
2022/06/16 04:43:15;;;;;;;;;;;;;;;;;;4953365;28;20469;-56
2022/06/16 04:45:40;;;;;;;;;;;;;;;;;;4959132;28;20922;-56
2022/06/16 04:48:07;;;;;;;;;;;;;;;;;;4960923;28;19921;-55
2022/06/16 04:50:35;;;;;;;;;;;;;;;;;;4957541;28;19925;-57
2022/06/16 04:53:02;;;;;;;;;;;;;;;;;;4944020;28;20021;-57
2022/06/16 04:55:28;;;;;;;;;;;;;;;;;;4966008;28;19949;-57
2022/06/16 04:57:56;;;;;;;;;;;;;;;;;;4962059;28;20005;-58
2022/06/16 05:00:22;;;;;;;;;;;;;;;;;;4959776;28;19922;-57
2022/06/16 05:02:49;;;;;;;;;;;;;;;;;;4962491;28;20274;-57
2022/06/16 05:05:17;;;;;;;;;;;;;;;;;;4941107;28;19918;-57
2022/06/16 05:07:42;;;;;;;;;;;;;;;;;;4963674;28;20016;-57
2022/06/16 05:10:08;;;;;;;;;;;;;;;;;;4966672;28;19930;-58
2022/06/16 05:12:33;;;;;;;;;;;;;;;;;;4945732;28;20301;-57
2022/06/16 05:15:01;;;;;;;;;;;;;;;;;;4947745;28;19929;-57
2022/06/16 05:17:26;;;;;;;;;;;;;;;;;;4964804;28;19924;-56
2022/06/16 05:19:54;;;;;;;;;;;;;;;;;;4942511;28;19961;-57
2022/06/16 05:22:19;;;;;;;;;;;;;;;;;;4937765;28;19940;-56
2022/06/16 05:24:44;;;;;;;;;;;;;;;;;;4941189;28;19921;-57
2022/06/16 05:27:10;;;;;;;;;;;;;;;;;;4963514;28;19945;-57
2022/06/16 05:29:38;;;;;;;;;;;;;;;;;;4960172;28;19936;-57
2022/06/16 05:32:03;;;;;;;;;;;;;;;;;;4961366;28;20578;-57
2022/06/16 05:34:28;;;;;;;;;;;;;;;;;;4937575;28;20048;-57
2022/06/16 05:36:56;;;;;;;;;;;;;;;;;;4957653;28;19932;-57
2022/06/16 05:39:22;;;;;;;;;;;;;;;;;;4955886;28;19929;-57
2022/06/16 05:41:49;;;;;;;;;;;;;;;;;;4935797;28;20017;-57
2022/06/16 05:44:15;;;;;;;;;;;;;;;;;;4966472;28;19932;-57
2022/06/16 05:46:41;;;;;;;;;;;;;;;;;;4944985;28;19922;-57
2022/06/16 05:49:07;;;;;;;;;;;;;;;;;;4966605;28;19971;-57
2022/06/16 05:51:32;;;;;;;;;;;;;;;;;;4966272;28;19922;-57
2022/06/16 05:53:57;;;;;;;;;;;;;;;;;;4961944;28;20037;-57
2022/06/16 05:56:22;;;;;;;;;;;;;;;;;;4961148;28;20419;-57
2022/06/16 05:58:48;;;;;;;;;;;;;;;;;;4945573;28;20333;-57
2022/06/16 06:01:16;;;;;;;;;;;;;;;;;;4966654;28;20009;-59
2022/06/16 06:03:41;;;;;;;;;;;;;;;;;;4964285;28;20056;-58
2022/06/16 06:06:07;;;;;;;;;;;;;;;;;;4965174;28;19995;-58
2022/06/16 06:16:45;;;;;;;;;;;;;;;;;;4945103;28;20362;-58
2022/06/16 06:19:31;;;;;;;;;;;;;;;;;;4942604;28;19918;-58
2022/06/16 06:22:02;;;;;;;;;;;;;;;;;;4946978;28;20096;-58
2022/06/16 06:24:28;;;;;;;;;;;;;;;;;;4940305;28;19944;-58
2022/06/16 06:26:56;;;;;;;;;;;;;;;;;;4943696;28;20690;-58
2022/06/16 06:29:21;;;;;;;;;;;;;;;;;;4963104;28;19982;-58
2022/06/16 06:31:49;;;;;;;;;;;;;;;;;;4962787;28;20413;-58
2022/06/16 06:34:15;;;;;;;;;;;;;;;;;;4948682;28;19932;-59
2022/06/16 06:36:42;;;;;;;;;;;;;;;;;;4928716;28;19922;-58
2022/06/16 06:39:10;;;;;;;;;;;;;;;;;;4959909;28;19925;-58
2022/06/16 06:41:37;;;;;;;;;;;;;;;;;;4960026;28;19957;-58
2022/06/16 06:44:06;;;;;;;;;;;;;;;;;;4963100;28;19933;-59
2022/06/16 06:46:31;;;;;;;;;;;;;;;;;;4943808;28;19930;-59
2022/06/16 06:48:56;;;;;;;;;;;;;;;;;;4930783;28;19952;-59
2022/06/16 06:51:22;;;;;;;;;;;;;;;;;;4961492;28;20835;-57
2022/06/16 06:53:48;;;;;;;;;;;;;;;;;;4960592;28;19925;-57
2022/06/16 06:56:13;;;;;;;;;;;;;;;;;;4939661;28;19964;-57
2022/06/16 06:58:38;;;;;;;;;;;;;;;;;;4963598;28;19921;-56
2022/06/16 07:01:07;;;;;;;;;;;;;;;;;;4965349;28;19922;-57
2022/06/16 07:03:32;;;;;;;;;;;;;;;;;;4959185;28;19976;-58
2022/06/16 07:05:59;;;;;;;;;;;;;;;;;;4963971;28;19926;-58
2022/06/16 07:08:27;;;;;;;;;;;;;;;;;;4953938;28;19922;-58
2022/06/16 07:10:52;;;;;;;;;;;;;;;;;;4963847;28;19932;-58
2022/06/16 07:13:18;;;;;;;;;;;;;;;;;;4962101;28;19922;-58
2022/06/16 07:15:46;;;;;;;;;;;;;;;;;;4955500;28;19930;-57
2022/06/16 07:18:14;;;;;;;;;;;;;;;;;;4958156;28;19969;-58
2022/06/16 07:20:39;;;;;;;;;;;;;;;;;;4957772;28;19991;-58
2022/06/16 07:23:05;;;;;;;;;;;;;;;;;;4959863;28;19929;-58
2022/06/16 07:25:35;;;;;;;;;;;;;;;;;;4960834;28;20004;-58
2022/06/16 07:28:06;;;;;;;;;;;;;;;;;;4963009;28;20662;-58
2022/06/16 07:30:31;;;;;;;;;;;;;;;;;;4958211;28;19957;-58
2022/06/16 07:32:59;;;;;;;;;;;;;;;;;;4959927;28;19926;-57
2022/06/16 07:35:25;;;;;;;;;;;;;;;;;;4960733;28;20171;-58
2022/06/16 07:37:50;;;;;;;;;;;;;;;;;;4960043;28;19922;-56
2022/06/16 07:40:17;;;;;;;;;;;;;;;;;;4954100;28;19922;-57
2022/06/16 07:42:44;;;;;;;;;;;;;;;;;;4958553;28;19924;-57
2022/06/16 07:45:10;;;;;;;;;;;;;;;;;;4961354;28;19925;-58
2022/06/16 07:47:37;;;;;;;;;;;;;;;;;;4957160;28;20932;-58
2022/06/16 07:50:04;;;;;;;;;;;;;;;;;;4960236;28;19948;-58
2022/06/16 07:52:29;;;;;;;;;;;;;;;;;;4942407;28;19999;-58
2022/06/16 07:54:55;;;;;;;;;;;;;;;;;;4940131;28;19922;-57
2022/06/16 07:57:21;;;;;;;;;;;;;;;;;;4962082;28;20012;-58
2022/06/16 07:59:48;;;;;;;;;;;;;;;;;;4957792;28;19924;-58
2022/06/16 08:02:13;;;;;;;;;;;;;;;;;;4926656;28;19922;-58
2022/06/16 08:04:41;;;;;;;;;;;;;;;;;;4960688;28;19971;-58
2022/06/16 08:07:07;;;;;;;;;;;;;;;;;;4933847;28;19932;-58
2022/06/16 08:09:35;;;;;;;;;;;;;;;;;;4938007;28;20412;-59
2022/06/16 08:12:07;;;;;;;;;;;;;;;;;;4956467;28;19922;-59
2022/06/16 08:14:32;;;;;;;;;;;;;;;;;;4940268;28;20725;-58
2022/06/16 08:16:57;;;;;;;;;;;;;;;;;;4940389;28;19932;-57
2022/06/16 08:19:23;;;;;;;;;;;;;;;;;;4935427;28;20774;-58
2022/06/16 08:21:51;;;;;;;;;;;;;;;;;;4959399;28;19922;-57
2022/06/16 08:24:19;;;;;;;;;;;;;;;;;;4957190;28;20945;-58
2022/06/16 08:26:46;;;;;;;;;;;;;;;;;;4945329;28;19922;-58
2022/06/16 08:29:17;;;;;;;;;;;;;;;;;;4943167;28;19922;-59
2022/06/16 08:31:42;;;;;;;;;;;;;;;;;;4966753;28;20315;-59
2022/06/16 08:34:07;;;;;;;;;;;;;;;;;;4965257;28;19914;-60
2022/06/16 08:36:36;;;;;;;;;;;;;;;;;;4962644;28;19984;-58
2022/06/16 08:39:01;;;;;;;;;;;;;;;;;;4946116;28;20333;-58
2022/06/16 08:41:28;;;;;;;;;;;;;;;;;;4946228;28;20002;-58
2022/06/16 08:43:54;;;;;;;;;;;;;;;;;;4963214;28;19928;-58
2022/06/16 08:46:19;;;;;;;;;;;;;;;;;;4964482;28;19926;-58
2022/06/16 08:48:45;;;;;;;;;;;;;;;;;;4940803;28;19937;-59
2022/06/16 08:51:14;;;;;;;;;;;;;;;;;;4964085;28;19922;-58
2022/06/16 08:53:40;;;;;;;;;;;;;;;;;;4965791;28;19948;-58
2022/06/16 08:56:06;;;;;;;;;;;;;;;;;;4962429;28;20517;-58
2022/06/16 08:58:31;;;;;;;;;;;;;;;;;;4963694;28;19922;-59
2022/06/16 09:00:59;;;;;;;;;;;;;;;;;;4942585;28;19922;-58
2022/06/16 09:03:24;;;;;;;;;;;;;;;;;;4931211;28;20016;-58
2022/06/16 09:05:49;;;;;;;;;;;;;;;;;;4964576;28;20024;-59
2022/06/16 09:08:16;;;;;;;;;;;;;;;;;;4962123;28;19922;-59
2022/06/16 09:10:42;;;;;;;;;;;;;;;;;;4948398;28;20262;-58
2022/06/16 09:13:07;;;;;;;;;;;;;;;;;;4963705;28;19929;-59
2022/06/16 09:15:33;;;;;;;;;;;;;;;;;;4929547;28;19924;-58
2022/06/16 09:17:58;;;;;;;;;;;;;;;;;;4942718;28;20250;-60
2022/06/16 09:20:27;;;;;;;;;;;;;;;;;;4942782;28;19918;-59
2022/06/16 09:22:52;;;;;;;;;;;;;;;;;;4963777;28;19917;-59
2022/06/16 09:25:17;;;;;;;;;;;;;;;;;;4948172;28;19921;-59
2022/06/16 09:27:45;;;;;;;;;;;;;;;;;;4947860;28;19922;-60
2022/06/16 09:30:13;;;;;;;;;;;;;;;;;;4945709;28;20021;-59
2022/06/16 09:32:41;;;;;;;;;;;;;;;;;;4963158;28;19926;-59
2022/06/16 09:35:07;;;;;;;;;;;;;;;;;;4966830;28;20524;-59
2022/06/16 09:37:35;;;;;;;;;;;;;;;;;;4967533;28;19929;-59
2022/06/16 09:40:03;;;;;;;;;;;;;;;;;;4932418;28;19929;-59
2022/06/16 09:42:32;;;;;;;;;;;;;;;;;;4964917;28;19921;-59
2022/06/16 09:44:58;;;;;;;;;;;;;;;;;;4942480;28;19952;-59
2022/06/16 09:47:24;;;;;;;;;;;;;;;;;;4964312;28;21820;-60
2022/06/16 09:49:51;;;;;;;;;;;;;;;;;;4964654;28;20888;-59
2022/06/16 09:52:17;;;;;;;;;;;;;;;;;;4964522;28;19928;-60
2022/06/16 09:54:42;;;;;;;;;;;;;;;;;;4965132;28;19965;-60
2022/06/16 09:57:09;;;;;;;;;;;;;;;;;;4947619;28;19918;-60
2022/06/16 09:59:34;;;;;;;;;;;;;;;;;;4962431;28;19924;-59
2022/06/16 10:02:02;;;;;;;;;;;;;;;;;;4965692;28;20007;-59
2022/06/16 10:04:28;;;;;;;;;;;;;;;;;;4945309;28;19922;-59
2022/06/16 10:06:56;;;;;;;;;;;;;;;;;;4963658;28;19929;-59
2022/06/16 10:09:23;;;;;;;;;;;;;;;;;;4965932;28;19918;-59
2022/06/16 10:11:49;;;;;;;;;;;;;;;;;;4951704;28;19921;-59
2022/06/16 10:14:16;;;;;;;;;;;;;;;;;;4964548;28;20000;-59
2022/06/16 10:16:43;;;;;;;;;;;;;;;;;;4965268;28;19924;-59
2022/06/16 10:19:10;;;;;;;;;;;;;;;;;;4929232;28;19971;-59
2022/06/16 10:21:36;;;;;;;;;;;;;;;;;;4965081;28;20901;-58
2022/06/16 10:24:01;;;;;;;;;;;;;;;;;;4931448;28;19922;-59
2022/06/16 10:26:26;;;;;;;;;;;;;;;;;;4964183;28;19930;-59
2022/06/16 10:28:56;;;;;;;;;;;;;;;;;;4947533;28;20044;-59
2022/06/16 10:31:24;;;;;;;;;;;;;;;;;;4963764;28;21770;-59
2022/06/16 10:33:51;;;;;;;;;;;;;;;;;;4948027;28;19922;-59
2022/06/16 10:36:20;;;;;;;;;;;;;;;;;;4946097;28;21896;-59
2022/06/16 10:38:47;;;;;;;;;;;;;;;;;;4946575;28;20282;-59
2022/06/16 10:41:13;;;;;;;;;;;;;;;;;;4964305;28;19976;-59
2022/06/16 10:43:41;;;;;;;;;;;;;;;;;;4964006;28;19949;-59
2022/06/16 10:46:11;;;;;;;;;;;;;;;;;;4962155;28;19921;-59
2022/06/16 10:48:36;;;;;;;;;;;;;;;;;;4932437;28;19917;-59
2022/06/16 10:51:05;;;;;;;;;;;;;;;;;;4962767;28;19926;-59
2022/06/16 10:53:32;;;;;;;;;;;;;;;;;;4944863;28;19929;-59
2022/06/16 10:55:58;;;;;;;;;;;;;;;;;;4926426;28;19917;-59
2022/06/16 10:58:23;;;;;;;;;;;;;;;;;;4945147;28;21816;-59
2022/06/16 11:00:49;;;;;;;;;;;;;;;;;;4965180;28;19949;-58
2022/06/16 11:03:15;;;;;;;;;;;;;;;;;;4962358;28;19922;-59
2022/06/16 11:05:41;;;;;;;;;;;;;;;;;;4940350;28;20350;-59
2022/06/16 11:08:06;;;;;;;;;;;;;;;;;;4944011;28;19996;-59
2022/06/16 11:10:32;;;;;;;;;;;;;;;;;;4964335;28;19926;-60
2022/06/16 11:12:57;;;;;;;;;;;;;;;;;;4924325;28;19965;-58
2022/06/16 11:15:22;;;;;;;;;;;;;;;;;;4924478;28;19917;-59
2022/06/16 11:17:52;;;;;;;;;;;;;;;;;;4963094;28;19922;-60
2022/06/16 11:20:17;;;;;;;;;;;;;;;;;;4947628;28;20908;-60
2022/06/16 11:22:43;;;;;;;;;;;;;;;;;;4945482;28;19976;-59
2022/06/16 11:25:11;;;;;;;;;;;;;;;;;;4930123;28;19968;-59
2022/06/16 11:27:36;;;;;;;;;;;;;;;;;;4948627;28;19921;-59
2022/06/16 11:30:01;;;;;;;;;;;;;;;;;;4939698;28;19958;-59
2022/06/16 11:32:31;;;;;;;;;;;;;;;;;;4960835;28;19980;-59
2022/06/16 11:34:56;;;;;;;;;;;;;;;;;;4963082;28;19918;-60
2022/06/16 11:37:21;;;;;;;;;;;;;;;;;;4961722;28;20468;-60
2022/06/16 11:39:49;;;;;;;;;;;;;;;;;;4963558;28;19963;-60
2022/06/16 11:42:14;;;;;;;;;;;;;;;;;;4961840;28;19976;-60
2022/06/16 11:44:39;;;;;;;;;;;;;;;;;;4945434;28;20132;-61
2022/06/16 11:47:05;;;;;;;;;;;;;;;;;;4962416;28;19918;-60
2022/06/16 11:49:33;;;;;;;;;;;;;;;;;;4959072;28;20024;-60
2022/06/16 11:51:58;;;;;;;;;;;;;;;;;;4964645;28;19922;-60
2022/06/16 11:54:23;;;;;;;;;;;;;;;;;;4924242;28;20305;-60
2022/06/16 11:56:54;;;;;;;;;;;;;;;;;;4947941;28;20262;-59
2022/06/16 11:59:20;;;;;;;;;;;;;;;;;;4946759;28;20332;-59
2022/06/16 12:01:46;;;;;;;;;;;;;;;;;;4924631;28;19922;-60
2022/06/16 12:04:13;;;;;;;;;;;;;;;;;;4942865;28;19922;-59
2022/06/16 12:06:39;;;;;;;;;;;;;;;;;;4958833;28;20362;-59
2022/06/16 12:09:04;;;;;;;;;;;;;;;;;;4941496;28;19921;-59
2022/06/16 12:11:29;;;;;;;;;;;;;;;;;;4923087;28;19922;-60
2022/06/16 12:13:56;;;;;;;;;;;;;;;;;;4961013;28;20008;-59
2022/06/16 12:16:21;;;;;;;;;;;;;;;;;;4963259;28;19925;-59
2022/06/16 12:18:47;;;;;;;;;;;;;;;;;;4962035;28;20390;-59
2022/06/16 12:21:13;;;;;;;;;;;;;;;;;;4938230;28;19922;-59
2022/06/16 12:23:38;;;;;;;;;;;;;;;;;;4964134;28;19922;-59
2022/06/16 12:26:03;;;;;;;;;;;;;;;;;;4940169;28;19968;-60
2022/06/16 12:28:29;;;;;;;;;;;;;;;;;;4931343;28;19944;-60
2022/06/16 12:30:55;;;;;;;;;;;;;;;;;;4963022;28;19972;-60
2022/06/16 12:33:20;;;;;;;;;;;;;;;;;;4942893;28;19972;-60
2022/06/16 12:35:48;;;;;;;;;;;;;;;;;;4963038;28;20832;-60
2022/06/16 12:38:16;;;;;;;;;;;;;;;;;;4961106;28;19937;-60
2022/06/16 12:40:44;;;;;;;;;;;;;;;;;;4939580;28;20080;-59
2022/06/16 12:43:09;;;;;;;;;;;;;;;;;;4964649;28;19926;-59
2022/06/16 12:45:35;;;;;;;;;;;;;;;;;;4960512;28;20319;-60
2022/06/16 12:48:03;;;;;;;;;;;;;;;;;;4962593;28;19922;-60
2022/06/16 12:50:30;;;;;;;;;;;;;;;;;;4963778;28;19933;-60
2022/06/16 12:52:56;;;;;;;;;;;;;;;;;;4960432;28;19918;-61
2022/06/16 12:55:21;;;;;;;;;;;;;;;;;;4963809;28;19953;-60
2022/06/16 12:57:47;;;;;;;;;;;;;;;;;;4961418;28;19976;-60
2022/06/16 13:00:14;;;;;;;;;;;;;;;;;;4962060;28;19918;-60
2022/06/16 13:02:42;;;;;;;;;;;;;;;;;;4961787;28;20012;-60
2022/06/16 13:05:10;;;;;;;;;;;;;;;;;;4962913;28;20609;-60
2022/06/16 13:07:38;;;;;;;;;;;;;;;;;;4959096;28;19949;-60
2022/06/16 13:10:03;;;;;;;;;;;;;;;;;;4942909;28;19922;-60
2022/06/16 13:12:28;;;;;;;;;;;;;;;;;;4944237;28;19960;-59
2022/06/16 13:14:54;;;;;;;;;;;;;;;;;;4965257;28;20036;-60
2022/06/16 13:17:22;;;;;;;;;;;;;;;;;;4966968;28;19926;-58
2022/06/16 13:19:47;;;;;;;;;;;;;;;;;;4949617;28;19932;-59
2022/06/16 13:22:15;;;;;;;;;;;;;;;;;;4941528;28;19922;-60
2022/06/16 13:24:40;;;;;;;;;;;;;;;;;;4941024;28;19969;-60
2022/06/16 13:27:09;;;;;;;;;;;;;;;;;;4962848;28;20529;-60
2022/06/16 13:29:34;;;;;;;;;;;;;;;;;;4932167;28;20491;-60
2022/06/16 13:32:02;;;;;;;;;;;;;;;;;;4940562;28;19933;-60
2022/06/16 13:34:30;;;;;;;;;;;;;;;;;;4964246;28;19961;-60
2022/06/16 13:36:58;;;;;;;;;;;;;;;;;;4941837;28;19918;-60
2022/06/16 13:39:25;;;;;;;;;;;;;;;;;;4954468;28;19930;-60
2022/06/16 13:41:51;;;;;;;;;;;;;;;;;;4949449;28;19922;-58
2022/06/16 13:44:17;;;;;;;;;;;;;;;;;;4944638;28;19930;-60
2022/06/16 13:46:42;;;;;;;;;;;;;;;;;;4965508;28;20701;-59
2022/06/16 13:49:10;;;;;;;;;;;;;;;;;;4964485;28;19957;-60
2022/06/16 13:51:35;;;;;;;;;;;;;;;;;;4948380;28;20040;-60
2022/06/16 13:54:03;;;;;;;;;;;;;;;;;;4964527;28;19921;-61
2022/06/16 13:56:29;;;;;;;;;;;;;;;;;;4964494;28;19932;-59
2022/06/16 13:58:57;;;;;;;;;;;;;;;;;;4947634;28;19917;-60
2022/06/16 14:01:23;;;;;;;;;;;;;;;;;;4946641;28;19922;-60
2022/06/16 14:03:49;;;;;;;;;;;;;;;;;;4947495;28;19930;-61
2022/06/16 14:06:14;;;;;;;;;;;;;;;;;;4945794;28;20681;-60
2022/06/16 14:08:42;;;;;;;;;;;;;;;;;;4961622;28;19922;-59
2022/06/16 14:11:07;;;;;;;;;;;;;;;;;;4923795;28;19929;-60
2022/06/16 14:13:32;;;;;;;;;;;;;;;;;;4945801;28;19921;-61
2022/06/16 14:15:58;;;;;;;;;;;;;;;;;;4962065;28;19921;-59
2022/06/16 14:18:23;;;;;;;;;;;;;;;;;;4947673;28;19952;-59
2022/06/16 14:20:49;;;;;;;;;;;;;;;;;;4945852;28;20005;-59
2022/06/16 14:23:15;;;;;;;;;;;;;;;;;;4941028;28;20055;-60
2022/06/16 14:25:43;;;;;;;;;;;;;;;;;;4963916;28;20021;-59
2022/06/16 14:28:11;;;;;;;;;;;;;;;;;;4940648;28;19953;-59
2022/06/16 14:30:36;;;;;;;;;;;;;;;;;;4962686;28;19928;-58
2022/06/16 14:33:04;;;;;;;;;;;;;;;;;;4943989;28;19926;-59
2022/06/16 14:35:32;;;;;;;;;;;;;;;;;;4942286;28;19926;-59
2022/06/16 14:37:57;;;;;;;;;;;;;;;;;;4929429;28;19953;-59
2022/06/16 14:40:22;;;;;;;;;;;;;;;;;;4925200;28;20401;-59
2022/06/16 14:42:50;;;;;;;;;;;;;;;;;;4941999;28;19932;-60
2022/06/16 14:45:16;;;;;;;;;;;;;;;;;;4947718;28;19921;-59
2022/06/16 14:47:42;;;;;;;;;;;;;;;;;;4960518;28;19926;-59
2022/06/16 14:50:09;;;;;;;;;;;;;;;;;;4959582;28;19937;-60
2022/06/16 14:52:35;;;;;;;;;;;;;;;;;;4939512;28;20386;-60
2022/06/16 14:55:01;;;;;;;;;;;;;;;;;;4956938;28;19922;-60
2022/06/16 14:57:26;;;;;;;;;;;;;;;;;;4940718;28;19926;-60
2022/06/16 14:59:54;;;;;;;;;;;;;;;;;;4963003;28;19980;-60
2022/06/16 15:02:24;;;;;;;;;;;;;;;;;;4941568;28;19930;-59
2022/06/16 15:04:49;;;;;;;;;;;;;;;;;;4947026;28;19933;-60
2022/06/16 15:07:15;;;;;;;;;;;;;;;;;;4939270;28;19918;-61
2022/06/16 15:09:43;;;;;;;;;;;;;;;;;;4960818;28;19926;-60
2022/06/16 15:12:09;;;;;;;;;;;;;;;;;;4954607;28;19918;-60
2022/06/16 15:14:34;;;;;;;;;;;;;;;;;;4960052;28;20380;-60
2022/06/16 15:19:44;;;;;;;;;;;;;;;;;;4958735;28;19966;-61
2022/06/16 15:22:09;;;;;;;;;;;;;;;;;;4931943;28;19928;-60
2022/06/16 15:24:37;;;;;;;;;;;;;;;;;;4921543;28;19976;-59
2022/06/16 15:27:02;;;;;;;;;;;;;;;;;;4918648;28;20048;-60
2022/06/16 15:29:27;;;;;;;;;;;;;;;;;;4958127;28;19963;-60
2022/06/16 15:31:57;;;;;;;;;;;;;;;;;;4957999;28;19972;-59
2022/06/16 15:37:09;;;;;;;;;;;;;;;;;;4955622;28;19922;-59
2022/06/16 15:39:37;;;;;;;;;;;;;;;;;;4957058;28;20029;-59
2022/06/16 15:42:03;;;;;;;;;;;;;;;;;;4959463;28;19975;-59
2022/06/16 15:44:30;;;;;;;;;;;;;;;;;;4958529;28;19945;-60
2022/06/16 15:46:55;;;;;;;;;;;;;;;;;;4963317;28;20337;-61
2022/06/16 15:49:20;;;;;;;;;;;;;;;;;;4961283;28;19929;-59
2022/06/16 15:51:48;;;;;;;;;;;;;;;;;;4942082;28;19929;-59
2022/06/16 15:54:13;;;;;;;;;;;;;;;;;;4959560;28;19922;-61
2022/06/16 15:56:38;;;;;;;;;;;;;;;;;;4942000;28;19933;-59
2022/06/16 15:59:05;;;;;;;;;;;;;;;;;;4940995;28;19973;-59
2022/06/16 16:01:31;;;;;;;;;;;;;;;;;;4938842;28;19921;-60
2022/06/16 16:03:59;;;;;;;;;;;;;;;;;;4923017;28;19987;-57
2022/06/16 16:06:24;;;;;;;;;;;;;;;;;;4937217;28;21023;-58
2022/06/16 16:08:50;;;;;;;;;;;;;;;;;;4959215;28;19922;-60
2022/06/16 16:11:17;;;;;;;;;;;;;;;;;;4956407;28;19921;-60
2022/06/16 16:13:43;;;;;;;;;;;;;;;;;;4956827;28;20123;-61
2022/06/16 16:16:08;;;;;;;;;;;;;;;;;;4957179;28;20373;-58
2022/06/16 16:18:37;;;;;;;;;;;;;;;;;;4954684;28;19922;-58
2022/06/16 16:21:03;;;;;;;;;;;;;;;;;;4941788;28;20297;-58
2022/06/16 16:23:30;;;;;;;;;;;;;;;;;;4954407;28;20021;-57
2022/06/16 16:25:58;;;;;;;;;;;;;;;;;;4960791;28;20004;-58
2022/06/16 16:28:23;;;;;;;;;;;;;;;;;;4936031;28;19975;-58
2022/06/16 16:30:52;;;;;;;;;;;;;;;;;;4954947;28;19932;-58
2022/06/16 16:33:19;;;;;;;;;;;;;;;;;;4955384;28;19918;-57
2022/06/16 16:35:45;;;;;;;;;;;;;;;;;;4956058;28;19924;-58
2022/06/16 16:38:10;;;;;;;;;;;;;;;;;;4922134;28;19926;-58
2022/06/16 16:43:21;;;;;;;;;;;;;;;;;;4936495;28;19933;-58
2022/06/16 16:45:46;;;;;;;;;;;;;;;;;;4939476;28;19921;-58
2022/06/16 16:48:14;;;;;;;;;;;;;;;;;;4960654;28;19932;-58
2022/06/16 16:50:42;;;;;;;;;;;;;;;;;;4958223;28;19929;-59
2022/06/16 16:53:08;;;;;;;;;;;;;;;;;;4963765;28;19918;-58
2022/06/16 16:55:33;;;;;;;;;;;;;;;;;;4966372;28;19999;-58
2022/06/16 16:58:02;;;;;;;;;;;;;;;;;;4963561;28;21881;-59
2022/06/16 17:00:30;;;;;;;;;;;;;;;;;;4962711;28;19922;-59
2022/06/16 17:02:58;;;;;;;;;;;;;;;;;;4959622;28;20780;-59
2022/06/16 17:05:23;;;;;;;;;;;;;;;;;;4960756;28;19955;-59